Check out our new PWSWeather beta!
PWSweather.com
Personal Weather Stations
Station Observations
ANTHEMNP
Anthem North Parkside, Anthem, AZ 85086

Anthem North ParksideAnthem, AZ 85086

Lat: 33.876464, Lon: -112.13861199999997

Elevation: 1930

Station Type: Davis Vantage Vue with Pro 2 console

http://www.azjerry.com/ANPW/wxindex.php

High Low Average
Temperature 113.1°F45.1°C 87.5°F30.8°C 97.2°F36.2°C
Dew Point 62.0°F16.7°C 49.0°F9.4°C 56.7°F13.7°C
Winds 13.8 mph 22.2 kmh 0.2 mph 0.3 kmh 5.0 mph SSE8.0 kmh SSE
Wind Gusts 25.0 mph40.2 kmh 1.0 mph1.6 kmh 10.0 mph16.1 kmh
Humidity 41% 12% 27%
Pressure 29.86 in1011.2 mb 29.69 in1005.4 mb -
Precipitation 0.00 in0.0 mm - -
Hour Temp Dew Point Humidity Winds Wind Gusts Pressure Precip Precip Rate Daily Precip Total
12:00 AM 93.0°F33.9°C 59.0°F15.0°C 32% 3.6 mph N5.8 kmh N 7.0 mph11.3 kmh 29.80 in1009.1 mb 0.00 in0.0 mm 0.00 in0.0 mm 0.00 in0.0 mm
12:10 AM 92.6°F33.7°C 60.0°F15.6°C 33% 3.9 mph NE6.3 kmh NE 7.0 mph11.3 kmh 29.80 in1009.1 mb 0.00 in0.0 mm 0.00 in0.0 mm 0.00 in0.0 mm
12:20 AM 92.2°F33.4°C 60.0°F15.6°C 34% 4.3 mph NNE6.9 kmh NNE 9.0 mph14.5 kmh 29.80 in1009.1 mb 0.00 in0.0 mm 0.00 in0.0 mm 0.00 in0.0 mm
12:30 AM 91.8°F33.2°C 60.0°F15.6°C 34% 4.9 mph NNE7.9 kmh NNE 8.0 mph12.9 kmh 29.79 in1008.8 mb 0.00 in0.0 mm 0.00 in0.0 mm 0.00 in0.0 mm
12:40 AM 91.6°F33.1°C 60.0°F15.6°C 34% 4.9 mph NNE7.9 kmh NNE 10.0 mph16.1 kmh 29.79 in1008.8 mb 0.00 in0.0 mm 0.00 in0.0 mm 0.00 in0.0 mm
12:50 AM 91.5°F33.1°C 59.0°F15.0°C 34% 5.4 mph NNE8.7 kmh NNE 11.0 mph17.7 kmh 29.78 in1008.5 mb 0.00 in0.0 mm 0.00 in0.0 mm 0.00 in0.0 mm
01:00 AM 91.2°F32.9°C 59.0°F15.0°C 34% 4.5 mph N7.2 kmh N 10.0 mph16.1 kmh 29.78 in1008.5 mb 0.00 in0.0 mm 0.00 in0.0 mm 0.00 in0.0 mm
01:10 AM 91.1°F32.8°C 60.0°F15.6°C 35% 3.6 mph N5.8 kmh N 9.0 mph14.5 kmh 29.78 in1008.5 mb 0.00 in0.0 mm 0.00 in0.0 mm 0.00 in0.0 mm
01:20 AM 91.2°F32.9°C 59.0°F15.0°C 34% 3.7 mph N6.0 kmh N 8.0 mph12.9 kmh 29.78 in1008.5 mb 0.00 in0.0 mm 0.00 in0.0 mm 0.00 in0.0 mm
01:30 AM 91.3°F32.9°C 59.0°F15.0°C 34% 4.1 mph NE6.6 kmh NE 11.0 mph17.7 kmh 29.78 in1008.5 mb 0.00 in0.0 mm 0.00 in0.0 mm 0.00 in0.0 mm
01:40 AM 90.7°F32.6°C 60.0°F15.6°C 35% 3.9 mph NE6.3 kmh NE 8.0 mph12.9 kmh 29.78 in1008.5 mb 0.00 in0.0 mm 0.00 in0.0 mm 0.00 in0.0 mm
01:50 AM 90.1°F32.3°C 60.0°F15.6°C 36% 4.9 mph N7.9 kmh N 9.0 mph14.5 kmh 29.77 in1008.1 mb 0.00 in0.0 mm 0.00 in0.0 mm 0.00 in0.0 mm
02:00 AM 90.1°F32.3°C 59.0°F15.0°C 35% 4.2 mph N6.8 kmh N 8.0 mph12.9 kmh 29.78 in1008.5 mb 0.00 in0.0 mm 0.00 in0.0 mm 0.00 in0.0 mm
02:10 AM 89.8°F32.1°C 59.0°F15.0°C 36% 5.0 mph N8.0 kmh N 10.0 mph16.1 kmh 29.77 in1008.1 mb 0.00 in0.0 mm 0.00 in0.0 mm 0.00 in0.0 mm
02:20 AM 89.4°F31.9°C 59.0°F15.0°C 36% 7.6 mph NE12.2 kmh NE 17.0 mph27.4 kmh 29.78 in1008.5 mb 0.00 in0.0 mm 0.00 in0.0 mm 0.00 in0.0 mm
02:30 AM 89.2°F31.8°C 59.0°F15.0°C 36% 7.7 mph NNW12.4 kmh NNW 16.0 mph25.7 kmh 29.78 in1008.5 mb 0.00 in0.0 mm 0.00 in0.0 mm 0.00 in0.0 mm
02:40 AM 89.2°F31.8°C 59.0°F15.0°C 36% 8.4 mph NNE13.5 kmh NNE 16.0 mph25.7 kmh 29.78 in1008.5 mb 0.00 in0.0 mm 0.00 in0.0 mm 0.00 in0.0 mm
02:50 AM 89.0°F31.7°C 59.0°F15.0°C 36% 9.5 mph NNW15.3 kmh NNW 16.0 mph25.7 kmh 29.78 in1008.5 mb 0.00 in0.0 mm 0.00 in0.0 mm 0.00 in0.0 mm
03:00 AM 88.9°F31.6°C 59.0°F15.0°C 36% 8.5 mph NNE13.7 kmh NNE 15.0 mph24.1 kmh 29.78 in1008.5 mb 0.00 in0.0 mm 0.00 in0.0 mm 0.00 in0.0 mm
03:10 AM 89.0°F31.7°C 59.0°F15.0°C 36% 8.6 mph NW13.8 kmh NW 16.0 mph25.7 kmh 29.79 in1008.8 mb 0.00 in0.0 mm 0.00 in0.0 mm 0.00 in0.0 mm
03:20 AM 89.1°F31.7°C 59.0°F15.0°C 36% 8.0 mph NE12.9 kmh NE 15.0 mph24.1 kmh 29.79 in1008.8 mb 0.00 in0.0 mm 0.00 in0.0 mm 0.00 in0.0 mm
03:30 AM 89.2°F31.8°C 58.0°F14.4°C 35% 7.9 mph NNE12.7 kmh NNE 15.0 mph24.1 kmh 29.79 in1008.8 mb 0.00 in0.0 mm 0.00 in0.0 mm 0.00 in0.0 mm
03:40 AM 89.3°F31.8°C 58.0°F14.4°C 35% 8.2 mph NNE13.2 kmh NNE 15.0 mph24.1 kmh 29.79 in1008.8 mb 0.00 in0.0 mm 0.00 in0.0 mm 0.00 in0.0 mm
03:50 AM 89.4°F31.9°C 58.0°F14.4°C 34% 6.7 mph NE10.8 kmh NE 12.0 mph19.3 kmh 29.79 in1008.8 mb 0.00 in0.0 mm 0.00 in0.0 mm 0.00 in0.0 mm
04:00 AM 89.8°F32.1°C 57.0°F13.9°C 33% 6.7 mph N10.8 kmh N 12.0 mph19.3 kmh 29.78 in1008.5 mb 0.00 in0.0 mm 0.00 in0.0 mm 0.00 in0.0 mm
04:10 AM 91.1°F32.8°C 57.0°F13.9°C 31% 7.8 mph NW12.6 kmh NW 14.0 mph22.5 kmh 29.79 in1008.8 mb 0.00 in0.0 mm 0.00 in0.0 mm 0.00 in0.0 mm
04:20 AM 91.1°F32.8°C 57.0°F13.9°C 31% 7.1 mph N11.4 kmh N 13.0 mph20.9 kmh 29.79 in1008.8 mb 0.00 in0.0 mm 0.00 in0.0 mm 0.00 in0.0 mm
04:30 AM 91.0°F32.8°C 56.0°F13.3°C 31% 6.9 mph NE11.1 kmh NE 12.0 mph19.3 kmh 29.79 in1008.8 mb 0.00 in0.0 mm 0.00 in0.0 mm 0.00 in0.0 mm
04:40 AM 91.2°F32.9°C 57.0°F13.9°C 31% 6.3 mph NNW10.1 kmh NNW 10.0 mph16.1 kmh 29.80 in1009.1 mb 0.00 in0.0 mm 0.00 in0.0 mm 0.00 in0.0 mm
04:50 AM 91.8°F33.2°C 56.0°F13.3°C 30% 6.6 mph N10.6 kmh N 12.0 mph19.3 kmh 29.80 in1009.1 mb 0.00 in0.0 mm 0.00 in0.0 mm 0.00 in0.0 mm
05:00 AM 91.8°F33.2°C 56.0°F13.3°C 30% 6.9 mph N11.1 kmh N 13.0 mph20.9 kmh 29.80 in1009.1 mb 0.00 in0.0 mm 0.00 in0.0 mm 0.00 in0.0 mm
05:10 AM 91.0°F32.8°C 56.0°F13.3°C 30% 5.8 mph N9.3 kmh N 10.0 mph16.1 kmh 29.80 in1009.1 mb 0.00 in0.0 mm 0.00 in0.0 mm 0.00 in0.0 mm
05:20 AM 89.9°F32.2°C 56.0°F13.3°C 32% 4.8 mph NNE7.7 kmh NNE 8.0 mph12.9 kmh 29.80 in1009.1 mb 0.00 in0.0 mm 0.00 in0.0 mm 0.00 in0.0 mm
05:30 AM 88.4°F31.3°C 57.0°F13.9°C 34% 4.7 mph NE7.6 kmh NE 9.0 mph14.5 kmh 29.80 in1009.1 mb 0.00 in0.0 mm 0.00 in0.0 mm 0.00 in0.0 mm
05:40 AM 88.0°F31.1°C 57.0°F13.9°C 35% 3.8 mph N6.1 kmh N 8.0 mph12.9 kmh 29.81 in1009.5 mb 0.00 in0.0 mm 0.00 in0.0 mm 0.00 in0.0 mm
05:50 AM 87.9°F31.1°C 56.0°F13.3°C 34% 2.8 mph NNE4.5 kmh NNE 5.0 mph8.0 kmh 29.81 in1009.5 mb 0.00 in0.0 mm 0.00 in0.0 mm 0.00 in0.0 mm
06:00 AM 88.0°F31.1°C 56.0°F13.3°C 34% 1.1 mph NNE1.8 kmh NNE 5.0 mph8.0 kmh 29.81 in1009.5 mb 0.00 in0.0 mm 0.00 in0.0 mm 0.00 in0.0 mm
06:10 AM 87.9°F31.1°C 57.0°F13.9°C 35% 2.4 mph NNE3.9 kmh NNE 6.0 mph9.7 kmh 29.81 in1009.5 mb 0.00 in0.0 mm 0.00 in0.0 mm 0.00 in0.0 mm
06:20 AM 87.7°F30.9°C 57.0°F13.9°C 35% 5.8 mph NW9.3 kmh NW 12.0 mph19.3 kmh 29.81 in1009.5 mb 0.00 in0.0 mm 0.00 in0.0 mm 0.00 in0.0 mm
06:30 AM 87.8°F31.0°C 57.0°F13.9°C 35% 5.7 mph NNE9.2 kmh NNE 11.0 mph17.7 kmh 29.81 in1009.5 mb 0.00 in0.0 mm 0.00 in0.0 mm 0.00 in0.0 mm
06:40 AM 88.2°F31.2°C 56.0°F13.3°C 34% 5.4 mph N8.7 kmh N 10.0 mph16.1 kmh 29.82 in1009.8 mb 0.00 in0.0 mm 0.00 in0.0 mm 0.00 in0.0 mm
06:50 AM 88.6°F31.4°C 57.0°F13.9°C 34% 4.6 mph N7.4 kmh N 10.0 mph16.1 kmh 29.82 in1009.8 mb 0.00 in0.0 mm 0.00 in0.0 mm 0.00 in0.0 mm
07:00 AM 89.3°F31.8°C 57.0°F13.9°C 34% 2.7 mph N4.3 kmh N 6.0 mph9.7 kmh 29.82 in1009.8 mb 0.00 in0.0 mm 0.00 in0.0 mm 0.00 in0.0 mm
07:10 AM 90.1°F32.3°C 57.0°F13.9°C 33% 3.1 mph N5.0 kmh N 8.0 mph12.9 kmh 29.82 in1009.8 mb 0.00 in0.0 mm 0.00 in0.0 mm 0.00 in0.0 mm
07:20 AM 91.1°F32.8°C 57.0°F13.9°C 31% 4.0 mph N6.4 kmh N 8.0 mph12.9 kmh 29.83 in1010.2 mb 0.00 in0.0 mm 0.00 in0.0 mm 0.00 in0.0 mm
07:30 AM 92.6°F33.7°C 57.0°F13.9°C 30% 4.3 mph N6.9 kmh N 7.0 mph11.3 kmh 29.83 in1010.2 mb 0.00 in0.0 mm 0.00 in0.0 mm 0.00 in0.0 mm
07:40 AM 93.9°F34.4°C 57.0°F13.9°C 29% 4.8 mph NNE7.7 kmh NNE 10.0 mph16.1 kmh 29.83 in1010.2 mb 0.00 in0.0 mm 0.00 in0.0 mm 0.00 in0.0 mm
07:50 AM 94.9°F34.9°C 57.0°F13.9°C 28% 4.8 mph NE7.7 kmh NE 10.0 mph16.1 kmh 29.83 in1010.2 mb 0.00 in0.0 mm 0.00 in0.0 mm 0.00 in0.0 mm
08:00 AM 96.0°F35.6°C 56.0°F13.3°C 26% 4.1 mph N6.6 kmh N 9.0 mph14.5 kmh 29.84 in1010.5 mb 0.00 in0.0 mm 0.00 in0.0 mm 0.00 in0.0 mm
08:10 AM 96.9°F36.1°C 57.0°F13.9°C 26% 3.6 mph NNW5.8 kmh NNW 6.0 mph9.7 kmh 29.84 in1010.5 mb 0.00 in0.0 mm 0.00 in0.0 mm 0.00 in0.0 mm
08:20 AM 98.3°F36.8°C 57.0°F13.9°C 25% 1.2 mph NNE1.9 kmh NNE 4.0 mph6.4 kmh 29.84 in1010.5 mb 0.00 in0.0 mm 0.00 in0.0 mm 0.00 in0.0 mm
08:30 AM 100.0°F37.8°C 59.0°F15.0°C 26% 0.9 mph N1.4 kmh N 3.0 mph4.8 kmh 29.84 in1010.5 mb 0.00 in0.0 mm 0.00 in0.0 mm 0.00 in0.0 mm
08:40 AM 100.8°F38.2°C 59.0°F15.0°C 25% 0.7 mph S1.1 kmh S 3.0 mph4.8 kmh 29.84 in1010.5 mb 0.00 in0.0 mm 0.00 in0.0 mm 0.00 in0.0 mm
08:50 AM 101.4°F38.6°C 60.0°F15.6°C 25% 0.6 mph SSE1.0 kmh SSE 3.0 mph4.8 kmh 29.84 in1010.5 mb 0.00 in0.0 mm 0.00 in0.0 mm 0.00 in0.0 mm
09:00 AM 101.6°F38.7°C 59.0°F15.0°C 24% 1.2 mph SSE1.9 kmh SSE 4.0 mph6.4 kmh 29.84 in1010.5 mb 0.00 in0.0 mm 0.00 in0.0 mm 0.00 in0.0 mm
09:10 AM 102.0°F38.9°C 59.0°F15.0°C 24% 1.1 mph SSW1.8 kmh SSW 3.0 mph4.8 kmh 29.84 in1010.5 mb 0.00 in0.0 mm 0.00 in0.0 mm 0.00 in0.0 mm
09:20 AM 102.3°F39.1°C 58.0°F14.4°C 23% 1.2 mph ESE1.9 kmh ESE 3.0 mph4.8 kmh 29.84 in1010.5 mb 0.00 in0.0 mm 0.00 in0.0 mm 0.00 in0.0 mm
09:30 AM 104.0°F40.0°C 59.0°F15.0°C 23% 0.7 mph SE1.1 kmh SE 4.0 mph6.4 kmh 29.84 in1010.5 mb 0.00 in0.0 mm 0.00 in0.0 mm 0.00 in0.0 mm
09:40 AM 105.0°F40.6°C 59.0°F15.0°C 22% 0.6 mph SW1.0 kmh SW 3.0 mph4.8 kmh 29.84 in1010.5 mb 0.00 in0.0 mm 0.00 in0.0 mm 0.00 in0.0 mm
09:50 AM 104.8°F40.4°C 58.0°F14.4°C 21% 0.8 mph SE1.3 kmh SE 3.0 mph4.8 kmh 29.84 in1010.5 mb 0.00 in0.0 mm 0.00 in0.0 mm 0.00 in0.0 mm
10:00 AM 104.9°F40.5°C 55.0°F12.8°C 19% 1.2 mph NE1.9 kmh NE 4.0 mph6.4 kmh 29.84 in1010.5 mb 0.00 in0.0 mm 0.00 in0.0 mm 0.00 in0.0 mm
10:10 AM 104.5°F40.3°C 55.0°F12.8°C 19% 1.4 mph N2.3 kmh N 5.0 mph8.0 kmh 29.84 in1010.5 mb 0.00 in0.0 mm 0.00 in0.0 mm 0.00 in0.0 mm
10:20 AM 105.8°F41.0°C 56.0°F13.3°C 19% 0.9 mph NNE1.4 kmh NNE 3.0 mph4.8 kmh 29.84 in1010.5 mb 0.00 in0.0 mm 0.00 in0.0 mm 0.00 in0.0 mm
10:30 AM 106.2°F41.2°C 55.0°F12.8°C 18% 0.5 mph NW0.8 kmh NW 2.0 mph3.2 kmh 29.83 in1010.2 mb 0.00 in0.0 mm 0.00 in0.0 mm 0.00 in0.0 mm
10:40 AM 106.5°F41.4°C 55.0°F12.8°C 18% 0.7 mph SSW1.1 kmh SSW 3.0 mph4.8 kmh 29.83 in1010.2 mb 0.00 in0.0 mm 0.00 in0.0 mm 0.00 in0.0 mm
10:50 AM 107.7°F42.1°C 54.0°F12.2°C 17% 1.1 mph WNW1.8 kmh WNW 6.0 mph9.7 kmh 29.83 in1010.2 mb 0.00 in0.0 mm 0.00 in0.0 mm 0.00 in0.0 mm
11:00 AM 107.3°F41.8°C 54.0°F12.2°C 17% 1.5 mph S2.4 kmh S 4.0 mph6.4 kmh 29.82 in1009.8 mb 0.00 in0.0 mm 0.00 in0.0 mm 0.00 in0.0 mm
11:10 AM 108.1°F42.3°C 55.0°F12.8°C 17% 1.6 mph SSW2.6 kmh SSW 7.0 mph11.3 kmh 29.82 in1009.8 mb 0.00 in0.0 mm 0.00 in0.0 mm 0.00 in0.0 mm
11:20 AM 108.7°F42.6°C 53.0°F11.7°C 16% 1.2 mph W1.9 kmh W 3.0 mph4.8 kmh 29.81 in1009.5 mb 0.00 in0.0 mm 0.00 in0.0 mm 0.00 in0.0 mm
11:30 AM 108.5°F42.5°C 53.0°F11.7°C 16% 2.0 mph SW3.2 kmh SW 10.0 mph16.1 kmh 29.81 in1009.5 mb 0.00 in0.0 mm 0.00 in0.0 mm 0.00 in0.0 mm
11:40 AM 109.9°F43.3°C 53.0°F11.7°C 15% 0.5 mph NNE0.8 kmh NNE 4.0 mph6.4 kmh 29.81 in1009.5 mb 0.00 in0.0 mm 0.00 in0.0 mm 0.00 in0.0 mm
11:50 AM 109.0°F42.8°C 55.0°F12.8°C 17% 2.3 mph S3.7 kmh S 6.0 mph9.7 kmh 29.80 in1009.1 mb 0.00 in0.0 mm 0.00 in0.0 mm 0.00 in0.0 mm
12:00 PM 109.3°F42.9°C 54.0°F12.2°C 16% 2.8 mph SSW4.5 kmh SSW 6.0 mph9.7 kmh 29.80 in1009.1 mb 0.00 in0.0 mm 0.00 in0.0 mm 0.00 in0.0 mm
12:10 PM 109.7°F43.2°C 54.0°F12.2°C 16% 2.5 mph SE4.0 kmh SE 9.0 mph14.5 kmh 29.80 in1009.1 mb 0.00 in0.0 mm 0.00 in0.0 mm 0.00 in0.0 mm
12:20 PM 109.7°F43.2°C 56.0°F13.3°C 17% 2.4 mph NW3.9 kmh NW 7.0 mph11.3 kmh 29.79 in1008.8 mb 0.00 in0.0 mm 0.00 in0.0 mm 0.00 in0.0 mm
12:30 PM 110.4°F43.6°C 57.0°F13.9°C 17% 2.3 mph SSW3.7 kmh SSW 9.0 mph14.5 kmh 29.79 in1008.8 mb 0.00 in0.0 mm 0.00 in0.0 mm 0.00 in0.0 mm
12:40 PM 109.6°F43.1°C 56.0°F13.3°C 17% 3.5 mph SW5.6 kmh SW 11.0 mph17.7 kmh 29.79 in1008.8 mb 0.00 in0.0 mm 0.00 in0.0 mm 0.00 in0.0 mm
12:50 PM 110.4°F43.6°C 57.0°F13.9°C 17% 1.9 mph SE3.1 kmh SE 12.0 mph19.3 kmh 29.78 in1008.5 mb 0.00 in0.0 mm 0.00 in0.0 mm 0.00 in0.0 mm
01:00 PM 109.6°F43.1°C 54.0°F12.2°C 16% 4.0 mph SE6.4 kmh SE 11.0 mph17.7 kmh 29.77 in1008.1 mb 0.00 in0.0 mm 0.00 in0.0 mm 0.00 in0.0 mm
01:10 PM 110.3°F43.5°C 55.0°F12.8°C 16% 2.7 mph SW4.3 kmh SW 9.0 mph14.5 kmh 29.77 in1008.1 mb 0.00 in0.0 mm 0.00 in0.0 mm 0.00 in0.0 mm
01:20 PM 110.7°F43.7°C 55.0°F12.8°C 16% 2.3 mph SW3.7 kmh SW 11.0 mph17.7 kmh 29.77 in1008.1 mb 0.00 in0.0 mm 0.00 in0.0 mm 0.00 in0.0 mm
01:30 PM 110.5°F43.6°C 55.0°F12.8°C 16% 3.8 mph SW6.1 kmh SW 10.0 mph16.1 kmh 29.76 in1007.8 mb 0.00 in0.0 mm 0.00 in0.0 mm 0.00 in0.0 mm
01:40 PM 110.4°F43.6°C 55.0°F12.8°C 16% 3.4 mph SSW5.5 kmh SSW 8.0 mph12.9 kmh 29.76 in1007.8 mb 0.00 in0.0 mm 0.00 in0.0 mm 0.00 in0.0 mm
01:50 PM 110.7°F43.7°C 55.0°F12.8°C 16% 1.7 mph SE2.7 kmh SE 5.0 mph8.0 kmh 29.75 in1007.5 mb 0.00 in0.0 mm 0.00 in0.0 mm 0.00 in0.0 mm
02:00 PM 111.7°F44.3°C 54.0°F12.2°C 15% 3.2 mph SW5.1 kmh SW 8.0 mph12.9 kmh 29.74 in1007.1 mb 0.00 in0.0 mm 0.00 in0.0 mm 0.00 in0.0 mm
02:10 PM 111.6°F44.2°C 54.0°F12.2°C 15% 2.3 mph SSE3.7 kmh SSE 11.0 mph17.7 kmh 29.74 in1007.1 mb 0.00 in0.0 mm 0.00 in0.0 mm 0.00 in0.0 mm
02:20 PM 111.3°F44.1°C 54.0°F12.2°C 15% 4.4 mph SSW7.1 kmh SSW 12.0 mph19.3 kmh 29.73 in1006.8 mb 0.00 in0.0 mm 0.00 in0.0 mm 0.00 in0.0 mm
02:30 PM 111.3°F44.1°C 54.0°F12.2°C 15% 2.8 mph SSE4.5 kmh SSE 10.0 mph16.1 kmh 29.73 in1006.8 mb 0.00 in0.0 mm 0.00 in0.0 mm 0.00 in0.0 mm
02:40 PM 112.0°F44.4°C 53.0°F11.7°C 14% 3.7 mph WSW6.0 kmh WSW 12.0 mph19.3 kmh 29.72 in1006.4 mb 0.00 in0.0 mm 0.00 in0.0 mm 0.00 in0.0 mm
02:50 PM 111.9°F44.4°C 52.0°F11.1°C 14% 4.5 mph SW7.2 kmh SW 11.0 mph17.7 kmh 29.72 in1006.4 mb 0.00 in0.0 mm 0.00 in0.0 mm 0.00 in0.0 mm
03:00 PM 112.0°F44.4°C 53.0°F11.7°C 14% 1.8 mph SW2.9 kmh SW 7.0 mph11.3 kmh 29.71 in1006.1 mb 0.00 in0.0 mm 0.00 in0.0 mm 0.00 in0.0 mm
03:10 PM 112.5°F44.7°C 51.0°F10.6°C 13% 1.8 mph N2.9 kmh N 6.0 mph9.7 kmh 29.71 in1006.1 mb 0.00 in0.0 mm 0.00 in0.0 mm 0.00 in0.0 mm
03:20 PM 111.9°F44.4°C 51.0°F10.6°C 13% 1.4 mph SW2.3 kmh SW 6.0 mph9.7 kmh 29.70 in1005.8 mb 0.00 in0.0 mm 0.00 in0.0 mm 0.00 in0.0 mm
03:30 PM 113.1°F45.1°C 51.0°F10.6°C 13% 1.6 mph SE2.6 kmh SE 4.0 mph6.4 kmh 29.70 in1005.8 mb 0.00 in0.0 mm 0.00 in0.0 mm 0.00 in0.0 mm
03:40 PM 113.0°F45.0°C 51.0°F10.6°C 13% 2.7 mph SW4.3 kmh SW 14.0 mph22.5 kmh 29.69 in1005.4 mb 0.00 in0.0 mm 0.00 in0.0 mm 0.00 in0.0 mm
03:50 PM 112.0°F44.4°C 51.0°F10.6°C 13% 4.4 mph SW7.1 kmh SW 11.0 mph17.7 kmh 29.69 in1005.4 mb 0.00 in0.0 mm 0.00 in0.0 mm 0.00 in0.0 mm
04:00 PM 111.3°F44.1°C 50.0°F10.0°C 13% 6.0 mph S9.7 kmh S 15.0 mph24.1 kmh 29.69 in1005.4 mb 0.00 in0.0 mm 0.00 in0.0 mm 0.00 in0.0 mm
04:10 PM 112.5°F44.7°C 49.0°F9.4°C 12% 1.3 mph N2.1 kmh N 6.0 mph9.7 kmh 29.70 in1005.8 mb 0.00 in0.0 mm 0.00 in0.0 mm 0.00 in0.0 mm
04:20 PM 111.8°F44.3°C 50.0°F10.0°C 13% 2.0 mph NE3.2 kmh NE 10.0 mph16.1 kmh 29.70 in1005.8 mb 0.00 in0.0 mm 0.00 in0.0 mm 0.00 in0.0 mm
04:30 PM 106.8°F41.6°C 55.0°F12.8°C 18% 5.2 mph N8.4 kmh N 16.0 mph25.7 kmh 29.73 in1006.8 mb 0.00 in0.0 mm 0.00 in0.0 mm 0.00 in0.0 mm
04:40 PM 101.7°F38.7°C 58.0°F14.4°C 23% 6.8 mph N10.9 kmh N 16.0 mph25.7 kmh 29.72 in1006.4 mb 0.00 in0.0 mm 0.00 in0.0 mm 0.00 in0.0 mm
04:50 PM 96.3°F35.7°C 60.0°F15.6°C 30% 9.4 mph NW15.1 kmh NW 24.0 mph38.6 kmh 29.74 in1007.1 mb 0.00 in0.0 mm 0.00 in0.0 mm 0.00 in0.0 mm
05:00 PM 93.9°F34.4°C 60.0°F15.6°C 32% 9.0 mph N14.5 kmh N 19.0 mph30.6 kmh 29.74 in1007.1 mb 0.00 in0.0 mm 0.00 in0.0 mm 0.00 in0.0 mm
05:10 PM 94.7°F34.8°C 57.0°F13.9°C 28% 10.7 mph NNW17.2 kmh NNW 25.0 mph40.2 kmh 29.75 in1007.5 mb 0.00 in0.0 mm 0.00 in0.0 mm 0.00 in0.0 mm
05:20 PM 95.6°F35.3°C 56.0°F13.3°C 26% 13.5 mph NE21.7 kmh NE 23.0 mph37.0 kmh 29.76 in1007.8 mb 0.00 in0.0 mm 0.00 in0.0 mm 0.00 in0.0 mm
05:30 PM 95.5°F35.3°C 56.0°F13.3°C 26% 13.8 mph N22.2 kmh N 25.0 mph40.2 kmh 29.77 in1008.1 mb 0.00 in0.0 mm 0.00 in0.0 mm 0.00 in0.0 mm
05:40 PM 95.1°F35.1°C 56.0°F13.3°C 27% 12.5 mph NNE20.1 kmh NNE 23.0 mph37.0 kmh 29.78 in1008.5 mb 0.00 in0.0 mm 0.00 in0.0 mm 0.00 in0.0 mm
05:50 PM 93.2°F34.0°C 60.0°F15.6°C 33% 11.1 mph N17.9 kmh N 22.0 mph35.4 kmh 29.77 in1008.1 mb 0.00 in0.0 mm 0.00 in0.0 mm 0.00 in0.0 mm
06:00 PM 90.6°F32.6°C 62.0°F16.7°C 38% 10.8 mph N17.4 kmh N 19.0 mph30.6 kmh 29.78 in1008.5 mb 0.00 in0.0 mm 0.00 in0.0 mm 0.00 in0.0 mm
06:10 PM 89.8°F32.1°C 61.0°F16.1°C 38% 12.4 mph NNE20.0 kmh NNE 21.0 mph33.8 kmh 29.78 in1008.5 mb 0.00 in0.0 mm 0.00 in0.0 mm 0.00 in0.0 mm
06:20 PM 92.1°F33.4°C 57.0°F13.9°C 30% 11.7 mph NNW18.8 kmh NNW 19.0 mph30.6 kmh 29.78 in1008.5 mb 0.00 in0.0 mm 0.00 in0.0 mm 0.00 in0.0 mm
06:30 PM 91.2°F32.9°C 61.0°F16.1°C 36% 11.0 mph N17.7 kmh N 19.0 mph30.6 kmh 29.79 in1008.8 mb 0.00 in0.0 mm 0.00 in0.0 mm 0.00 in0.0 mm
06:40 PM 90.8°F32.7°C 60.0°F15.6°C 36% 10.3 mph N16.6 kmh N 18.0 mph29.0 kmh 29.78 in1008.5 mb 0.00 in0.0 mm 0.00 in0.0 mm 0.00 in0.0 mm
06:50 PM 92.5°F33.6°C 58.0°F14.4°C 31% 9.5 mph NNW15.3 kmh NNW 18.0 mph29.0 kmh 29.78 in1008.5 mb 0.00 in0.0 mm 0.00 in0.0 mm 0.00 in0.0 mm
07:00 PM 93.4°F34.1°C 58.0°F14.4°C 30% 9.4 mph NNW15.1 kmh NNW 18.0 mph29.0 kmh 29.79 in1008.8 mb 0.00 in0.0 mm 0.00 in0.0 mm 0.00 in0.0 mm
07:10 PM 92.0°F33.3°C 58.0°F14.4°C 32% 11.0 mph NNE17.7 kmh NNE 21.0 mph33.8 kmh 29.77 in1008.1 mb 0.00 in0.0 mm 0.00 in0.0 mm 0.00 in0.0 mm
07:20 PM 93.4°F34.1°C 57.0°F13.9°C 29% 10.5 mph NW16.9 kmh NW 17.0 mph27.4 kmh 29.77 in1008.1 mb 0.00 in0.0 mm 0.00 in0.0 mm 0.00 in0.0 mm
07:30 PM 91.6°F33.1°C 58.0°F14.4°C 32% 10.4 mph N16.7 kmh N 19.0 mph30.6 kmh 29.77 in1008.1 mb 0.00 in0.0 mm 0.00 in0.0 mm 0.00 in0.0 mm
07:40 PM 91.6°F33.1°C 58.0°F14.4°C 32% 8.4 mph NE13.5 kmh NE 19.0 mph30.6 kmh 29.77 in1008.1 mb 0.00 in0.0 mm 0.00 in0.0 mm 0.00 in0.0 mm
07:50 PM 90.8°F32.7°C 58.0°F14.4°C 33% 9.3 mph N15.0 kmh N 16.0 mph25.7 kmh 29.77 in1008.1 mb 0.00 in0.0 mm 0.00 in0.0 mm 0.00 in0.0 mm
08:00 PM 92.3°F33.5°C 55.0°F12.8°C 28% 7.8 mph NW12.6 kmh NW 13.0 mph20.9 kmh 29.77 in1008.1 mb 0.00 in0.0 mm 0.00 in0.0 mm 0.00 in0.0 mm
08:10 PM 93.7°F34.3°C 53.0°F11.7°C 25% 4.3 mph NNE6.9 kmh NNE 12.0 mph19.3 kmh 29.77 in1008.1 mb 0.00 in0.0 mm 0.00 in0.0 mm 0.00 in0.0 mm
08:20 PM 94.0°F34.4°C 53.0°F11.7°C 25% 3.6 mph NE5.8 kmh NE 9.0 mph14.5 kmh 29.78 in1008.5 mb 0.00 in0.0 mm 0.00 in0.0 mm 0.00 in0.0 mm
08:30 PM 92.7°F33.7°C 56.0°F13.3°C 29% 1.1 mph N1.8 kmh N 4.0 mph6.4 kmh 29.78 in1008.5 mb 0.00 in0.0 mm 0.00 in0.0 mm 0.00 in0.0 mm
08:40 PM 92.3°F33.5°C 57.0°F13.9°C 30% 4.6 mph N7.4 kmh N 10.0 mph16.1 kmh 29.79 in1008.8 mb 0.00 in0.0 mm 0.00 in0.0 mm 0.00 in0.0 mm
08:50 PM 92.4°F33.6°C 55.0°F12.8°C 28% 3.7 mph NNW6.0 kmh NNW 9.0 mph14.5 kmh 29.79 in1008.8 mb 0.00 in0.0 mm 0.00 in0.0 mm 0.00 in0.0 mm
09:00 PM 92.3°F33.5°C 55.0°F12.8°C 28% 3.6 mph NNE5.8 kmh NNE 7.0 mph11.3 kmh 29.80 in1009.1 mb 0.00 in0.0 mm 0.00 in0.0 mm 0.00 in0.0 mm
09:10 PM 92.5°F33.6°C 55.0°F12.8°C 28% 3.0 mph N4.8 kmh N 8.0 mph12.9 kmh 29.80 in1009.1 mb 0.00 in0.0 mm 0.00 in0.0 mm 0.00 in0.0 mm
09:20 PM 92.9°F33.8°C 54.0°F12.2°C 27% 4.1 mph N6.6 kmh N 10.0 mph16.1 kmh 29.80 in1009.1 mb 0.00 in0.0 mm 0.00 in0.0 mm 0.00 in0.0 mm
09:30 PM 93.2°F34.0°C 54.0°F12.2°C 26% 3.7 mph SE6.0 kmh SE 9.0 mph14.5 kmh 29.84 in1010.5 mb 0.00 in0.0 mm 0.00 in0.0 mm 0.00 in0.0 mm
09:40 PM 93.9°F34.4°C 54.0°F12.2°C 26% 4.7 mph SSW7.6 kmh SSW 12.0 mph19.3 kmh 29.84 in1010.5 mb 0.00 in0.0 mm 0.00 in0.0 mm 0.00 in0.0 mm
09:50 PM 93.5°F34.2°C 57.0°F13.9°C 29% 4.6 mph SSW7.4 kmh SSW 12.0 mph19.3 kmh 29.85 in1010.8 mb 0.00 in0.0 mm 0.00 in0.0 mm 0.00 in0.0 mm
10:00 PM 93.1°F33.9°C 57.0°F13.9°C 30% 2.4 mph SSW3.9 kmh SSW 9.0 mph14.5 kmh 29.85 in1010.8 mb 0.00 in0.0 mm 0.00 in0.0 mm 0.00 in0.0 mm
10:10 PM 92.5°F33.6°C 57.0°F13.9°C 30% 3.5 mph SW5.6 kmh SW 10.0 mph16.1 kmh 29.85 in1010.8 mb 0.00 in0.0 mm 0.00 in0.0 mm 0.00 in0.0 mm
10:20 PM 91.7°F33.2°C 58.0°F14.4°C 32% 3.8 mph SE6.1 kmh SE 8.0 mph12.9 kmh 29.85 in1010.8 mb 0.00 in0.0 mm 0.00 in0.0 mm 0.00 in0.0 mm
10:30 PM 91.1°F32.8°C 58.0°F14.4°C 33% 2.4 mph SE3.9 kmh SE 6.0 mph9.7 kmh 29.85 in1010.8 mb 0.00 in0.0 mm 0.00 in0.0 mm 0.00 in0.0 mm
10:40 PM 90.6°F32.6°C 58.0°F14.4°C 33% 1.1 mph SE1.8 kmh SE 3.0 mph4.8 kmh 29.86 in1011.2 mb 0.00 in0.0 mm 0.00 in0.0 mm 0.00 in0.0 mm
10:50 PM 90.1°F32.3°C 58.0°F14.4°C 34% 0.2 mph SE0.3 kmh SE 1.0 mph1.6 kmh 29.86 in1011.2 mb 0.00 in0.0 mm 0.00 in0.0 mm 0.00 in0.0 mm
11:00 PM 89.3°F31.8°C 58.0°F14.4°C 35% 0.2 mph ESE0.3 kmh ESE 2.0 mph3.2 kmh 29.85 in1010.8 mb 0.00 in0.0 mm 0.00 in0.0 mm 0.00 in0.0 mm
11:10 PM 89.0°F31.7°C 59.0°F15.0°C 37% 1.4 mph E2.3 kmh E 4.0 mph6.4 kmh 29.85 in1010.8 mb 0.00 in0.0 mm 0.00 in0.0 mm 0.00 in0.0 mm
11:20 PM 88.7°F31.5°C 60.0°F15.6°C 38% 1.8 mph SE2.9 kmh SE 6.0 mph9.7 kmh 29.85 in1010.8 mb 0.00 in0.0 mm 0.00 in0.0 mm 0.00 in0.0 mm
11:30 PM 88.1°F31.2°C 61.0°F16.1°C 40% 1.4 mph SE2.3 kmh SE 5.0 mph8.0 kmh 29.84 in1010.5 mb 0.00 in0.0 mm 0.00 in0.0 mm 0.00 in0.0 mm
11:40 PM 87.6°F30.9°C 61.0°F16.1°C 41% 0.5 mph SE0.8 kmh SE 3.0 mph4.8 kmh 29.85 in1010.8 mb 0.00 in0.0 mm 0.00 in0.0 mm 0.00 in0.0 mm
11:50 PM 87.5°F30.8°C 61.0°F16.1°C 41% 0.7 mph NNE1.1 kmh NNE 3.0 mph4.8 kmh 29.85 in1010.8 mb 0.00 in0.0 mm 0.00 in0.0 mm 0.00 in0.0 mm